sensor_id;sensor_type;location;lat;lon;timestamp;P1;durP1;ratioP1;P2;durP2;ratioP2
23280;SDS011;11809;56.390;-3.266;2023-06-19T00:02:05;7.80;;;6.53;;
23280;SDS011;11809;56.390;-3.266;2023-06-19T00:04:32;6.78;;;6.18;;
23280;SDS011;11809;56.390;-3.266;2023-06-19T00:06:59;8.60;;;6.18;;
23280;SDS011;11809;56.390;-3.266;2023-06-19T00:09:27;6.72;;;6.03;;
23280;SDS011;11809;56.390;-3.266;2023-06-19T00:11:55;6.65;;;6.07;;
23280;SDS011;11809;56.390;-3.266;2023-06-19T00:14:22;7.13;;;6.43;;
23280;SDS011;11809;56.390;-3.266;2023-06-19T00:16:49;7.55;;;6.78;;
23280;SDS011;11809;56.390;-3.266;2023-06-19T00:19:17;6.93;;;6.22;;
23280;SDS011;11809;56.390;-3.266;2023-06-19T00:21:45;8.52;;;6.30;;
23280;SDS011;11809;56.390;-3.266;2023-06-19T00:24:12;6.82;;;6.05;;
23280;SDS011;11809;56.390;-3.266;2023-06-19T00:26:39;9.15;;;6.60;;
23280;SDS011;11809;56.390;-3.266;2023-06-19T00:29:06;7.00;;;6.30;;
23280;SDS011;11809;56.390;-3.266;2023-06-19T00:31:34;7.55;;;6.53;;
23280;SDS011;11809;56.390;-3.266;2023-06-19T00:34:03;7.70;;;6.95;;
23280;SDS011;11809;56.390;-3.266;2023-06-19T00:36:30;7.35;;;6.65;;
23280;SDS011;11809;56.390;-3.266;2023-06-19T00:38:58;6.35;;;5.72;;
23280;SDS011;11809;56.390;-3.266;2023-06-19T00:41:25;8.43;;;6.30;;
23280;SDS011;11809;56.390;-3.266;2023-06-19T00:43:54;7.00;;;6.30;;
23280;SDS011;11809;56.390;-3.266;2023-06-19T00:46:21;7.25;;;6.55;;
23280;SDS011;11809;56.390;-3.266;2023-06-19T00:48:48;8.57;;;6.22;;
23280;SDS011;11809;56.390;-3.266;2023-06-19T00:51:15;7.15;;;6.18;;
23280;SDS011;11809;56.390;-3.266;2023-06-19T00:53:43;7.18;;;6.47;;
23280;SDS011;11809;56.390;-3.266;2023-06-19T00:56:10;7.30;;;6.57;;
23280;SDS011;11809;56.390;-3.266;2023-06-19T00:58:37;7.00;;;6.25;;
23280;SDS011;11809;56.390;-3.266;2023-06-19T01:01:05;8.73;;;6.55;;
23280;SDS011;11809;56.390;-3.266;2023-06-19T01:03:35;7.25;;;6.53;;
23280;SDS011;11809;56.390;-3.266;2023-06-19T01:06:05;7.32;;;6.63;;
23280;SDS011;11809;56.390;-3.266;2023-06-19T01:08:46;8.18;;;6.38;;
23280;SDS011;11809;56.390;-3.266;2023-06-19T01:11:23;7.55;;;6.75;;
23280;SDS011;11809;56.390;-3.266;2023-06-19T01:14:06;6.97;;;6.30;;
23280;SDS011;11809;56.390;-3.266;2023-06-19T01:16:36;7.38;;;6.47;;
23280;SDS011;11809;56.390;-3.266;2023-06-19T01:19:04;7.50;;;6.70;;
23280;SDS011;11809;56.390;-3.266;2023-06-19T01:21:36;8.18;;;6.50;;
23280;SDS011;11809;56.390;-3.266;2023-06-19T01:24:03;7.57;;;6.60;;
23280;SDS011;11809;56.390;-3.266;2023-06-19T01:26:31;7.07;;;6.35;;
23280;SDS011;11809;56.390;-3.266;2023-06-19T01:28:58;7.40;;;6.32;;
23280;SDS011;11809;56.390;-3.266;2023-06-19T01:31:31;6.88;;;6.22;;
23280;SDS011;11809;56.390;-3.266;2023-06-19T01:34:17;7.57;;;6.78;;
23280;SDS011;11809;56.390;-3.266;2023-06-19T01:36:47;7.05;;;6.22;;
23280;SDS011;11809;56.390;-3.266;2023-06-19T01:39:18;6.63;;;6.03;;
23280;SDS011;11809;56.390;-3.266;2023-06-19T01:41:46;5.88;;;5.28;;
23280;SDS011;11809;56.390;-3.266;2023-06-19T01:44:14;6.10;;;5.50;;
23280;SDS011;11809;56.390;-3.266;2023-06-19T01:46:42;8.60;;;5.20;;
23280;SDS011;11809;56.390;-3.266;2023-06-19T01:49:09;6.75;;;5.40;;
23280;SDS011;11809;56.390;-3.266;2023-06-19T01:51:36;6.15;;;5.60;;
23280;SDS011;11809;56.390;-3.266;2023-06-19T01:54:03;5.50;;;4.90;;
23280;SDS011;11809;56.390;-3.266;2023-06-19T01:56:30;6.60;;;5.35;;
23280;SDS011;11809;56.390;-3.266;2023-06-19T01:58:58;5.32;;;4.82;;
23280;SDS011;11809;56.390;-3.266;2023-06-19T02:01:25;6.05;;;4.50;;
23280;SDS011;11809;56.390;-3.266;2023-06-19T02:03:52;5.18;;;4.65;;
23280;SDS011;11809;56.390;-3.266;2023-06-19T02:06:19;4.78;;;4.38;;
23280;SDS011;11809;56.390;-3.266;2023-06-19T02:08:48;4.25;;;3.85;;
23280;SDS011;11809;56.390;-3.266;2023-06-19T02:11:15;4.47;;;4.07;;
23280;SDS011;11809;56.390;-3.266;2023-06-19T02:13:42;4.28;;;3.88;;
23280;SDS011;11809;56.390;-3.266;2023-06-19T02:16:09;4.07;;;3.65;;
23280;SDS011;11809;56.390;-3.266;2023-06-19T02:18:36;4.13;;;3.83;;
23280;SDS011;11809;56.390;-3.266;2023-06-19T02:21:03;4.05;;;3.60;;
23280;SDS011;11809;56.390;-3.266;2023-06-19T02:23:30;4.00;;;3.70;;
23280;SDS011;11809;56.390;-3.266;2023-06-19T02:25:57;4.00;;;3.17;;
23280;SDS011;11809;56.390;-3.266;2023-06-19T02:28:24;4.07;;;3.70;;
23280;SDS011;11809;56.390;-3.266;2023-06-19T02:30:53;4.88;;;3.20;;
23280;SDS011;11809;56.390;-3.266;2023-06-19T02:33:20;3.40;;;3.15;;
23280;SDS011;11809;56.390;-3.266;2023-06-19T02:35:48;3.70;;;3.40;;
23280;SDS011;11809;56.390;-3.266;2023-06-19T02:38:15;3.78;;;3.40;;
23280;SDS011;11809;56.390;-3.266;2023-06-19T02:40:42;2.83;;;2.63;;
23280;SDS011;11809;56.390;-3.266;2023-06-19T02:43:09;3.25;;;2.97;;
23280;SDS011;11809;56.390;-3.266;2023-06-19T02:45:36;3.20;;;2.90;;
23280;SDS011;11809;56.390;-3.266;2023-06-19T02:48:04;3.10;;;2.90;;
23280;SDS011;11809;56.390;-3.266;2023-06-19T02:50:31;3.28;;;2.97;;
23280;SDS011;11809;56.390;-3.266;2023-06-19T02:52:58;2.78;;;2.58;;
23280;SDS011;11809;56.390;-3.266;2023-06-19T02:55:25;2.92;;;2.70;;
23280;SDS011;11809;56.390;-3.266;2023-06-19T02:57:52;2.90;;;2.70;;
23280;SDS011;11809;56.390;-3.266;2023-06-19T03:00:20;2.75;;;2.55;;
23280;SDS011;11809;56.390;-3.266;2023-06-19T03:02:47;3.17;;;2.97;;
23280;SDS011;11809;56.390;-3.266;2023-06-19T03:05:15;2.65;;;2.45;;
23280;SDS011;11809;56.390;-3.266;2023-06-19T03:07:42;3.05;;;2.67;;
23280;SDS011;11809;56.390;-3.266;2023-06-19T03:10:09;2.70;;;2.50;;
23280;SDS011;11809;56.390;-3.266;2023-06-19T03:12:36;2.90;;;2.67;;
23280;SDS011;11809;56.390;-3.266;2023-06-19T03:15:04;2.65;;;2.50;;
23280;SDS011;11809;56.390;-3.266;2023-06-19T03:17:31;2.33;;;2.13;;
23280;SDS011;11809;56.390;-3.266;2023-06-19T03:19:58;3.35;;;2.33;;
23280;SDS011;11809;56.390;-3.266;2023-06-19T03:22:25;2.63;;;2.20;;
23280;SDS011;11809;56.390;-3.266;2023-06-19T03:24:52;2.50;;;2.30;;
23280;SDS011;11809;56.390;-3.266;2023-06-19T03:27:19;2.25;;;2.08;;
23280;SDS011;11809;56.390;-3.266;2023-06-19T03:29:46;3.20;;;2.40;;
23280;SDS011;11809;56.390;-3.266;2023-06-19T03:32:13;2.60;;;2.40;;
23280;SDS011;11809;56.390;-3.266;2023-06-19T03:34:41;2.25;;;2.15;;
23280;SDS011;11809;56.390;-3.266;2023-06-19T03:37:08;2.33;;;2.13;;
23280;SDS011;11809;56.390;-3.266;2023-06-19T03:39:36;2.58;;;2.33;;
23280;SDS011;11809;56.390;-3.266;2023-06-19T03:42:03;2.65;;;2.25;;
23280;SDS011;11809;56.390;-3.266;2023-06-19T03:44:30;2.70;;;2.50;;
23280;SDS011;11809;56.390;-3.266;2023-06-19T03:46:57;2.83;;;2.63;;
23280;SDS011;11809;56.390;-3.266;2023-06-19T03:49:24;3.30;;;3.00;;
23280;SDS011;11809;56.390;-3.266;2023-06-19T03:51:51;3.50;;;3.20;;
23280;SDS011;11809;56.390;-3.266;2023-06-19T03:54:18;4.25;;;3.00;;
23280;SDS011;11809;56.390;-3.266;2023-06-19T03:56:45;4.28;;;3.45;;
23280;SDS011;11809;56.390;-3.266;2023-06-19T03:59:12;4.40;;;3.22;;
23280;SDS011;11809;56.390;-3.266;2023-06-19T04:01:39;3.72;;;3.33;;
23280;SDS011;11809;56.390;-3.266;2023-06-19T04:04:07;4.47;;;3.78;;
23280;SDS011;11809;56.390;-3.266;2023-06-19T04:06:34;4.82;;;3.50;;
23280;SDS011;11809;56.390;-3.266;2023-06-19T04:09:01;4.43;;;3.30;;
23280;SDS011;11809;56.390;-3.266;2023-06-19T04:11:29;3.97;;;3.35;;
23280;SDS011;11809;56.390;-3.266;2023-06-19T04:13:56;4.40;;;3.40;;
23280;SDS011;11809;56.390;-3.266;2023-06-19T04:16:23;4.32;;;3.50;;
23280;SDS011;11809;56.390;-3.266;2023-06-19T04:18:50;4.03;;;3.55;;
23280;SDS011;11809;56.390;-3.266;2023-06-19T04:21:17;3.65;;;3.20;;
23280;SDS011;11809;56.390;-3.266;2023-06-19T04:23:44;3.80;;;3.50;;
23280;SDS011;11809;56.390;-3.266;2023-06-19T04:26:11;6.85;;;3.35;;
23280;SDS011;11809;56.390;-3.266;2023-06-19T04:28:38;29.35;;;4.22;;
23280;SDS011;11809;56.390;-3.266;2023-06-19T04:31:06;19.48;;;3.80;;
23280;SDS011;11809;56.390;-3.266;2023-06-19T04:33:33;9.50;;;3.70;;
23280;SDS011;11809;56.390;-3.266;2023-06-19T04:36:00;15.80;;;4.13;;
23280;SDS011;11809;56.390;-3.266;2023-06-19T04:38:27;15.35;;;4.18;;
23280;SDS011;11809;56.390;-3.266;2023-06-19T04:40:54;11.35;;;3.63;;
23280;SDS011;11809;56.390;-3.266;2023-06-19T04:43:21;11.50;;;2.92;;
23280;SDS011;11809;56.390;-3.266;2023-06-19T04:45:51;13.07;;;3.70;;
23280;SDS011;11809;56.390;-3.266;2023-06-19T04:48:18;11.18;;;3.67;;
23280;SDS011;11809;56.390;-3.266;2023-06-19T04:50:45;8.02;;;3.25;;
23280;SDS011;11809;56.390;-3.266;2023-06-19T04:53:12;7.38;;;2.97;;
23280;SDS011;11809;56.390;-3.266;2023-06-19T04:55:39;4.65;;;2.83;;
23280;SDS011;11809;56.390;-3.266;2023-06-19T04:58:06;9.38;;;2.78;;
23280;SDS011;11809;56.390;-3.266;2023-06-19T05:00:33;6.00;;;2.53;;
23280;SDS011;11809;56.390;-3.266;2023-06-19T05:03:01;5.97;;;2.70;;
23280;SDS011;11809;56.390;-3.266;2023-06-19T05:05:28;20.55;;;3.45;;
23280;SDS011;11809;56.390;-3.266;2023-06-19T05:07:55;7.88;;;3.03;;
23280;SDS011;11809;56.390;-3.266;2023-06-19T05:10:22;21.95;;;3.83;;
23280;SDS011;11809;56.390;-3.266;2023-06-19T05:12:50;22.80;;;3.70;;
23280;SDS011;11809;56.390;-3.266;2023-06-19T05:15:17;10.73;;;3.65;;
23280;SDS011;11809;56.390;-3.266;2023-06-19T05:17:44;14.23;;;3.47;;
23280;SDS011;11809;56.390;-3.266;2023-06-19T05:20:13;19.45;;;3.58;;
23280;SDS011;11809;56.390;-3.266;2023-06-19T05:22:40;16.02;;;3.17;;
23280;SDS011;11809;56.390;-3.266;2023-06-19T05:25:07;17.50;;;3.45;;
23280;SDS011;11809;56.390;-3.266;2023-06-19T05:27:35;15.95;;;3.17;;
23280;SDS011;11809;56.390;-3.266;2023-06-19T05:30:02;19.40;;;3.88;;
23280;SDS011;11809;56.390;-3.266;2023-06-19T05:32:31;22.15;;;4.43;;
23280;SDS011;11809;56.390;-3.266;2023-06-19T05:34:58;24.52;;;3.35;;
23280;SDS011;11809;56.390;-3.266;2023-06-19T05:37:25;21.13;;;3.38;;
23280;SDS011;11809;56.390;-3.266;2023-06-19T05:39:53;11.27;;;2.90;;
23280;SDS011;11809;56.390;-3.266;2023-06-19T05:42:21;13.77;;;3.22;;
23280;SDS011;11809;56.390;-3.266;2023-06-19T05:44:48;13.45;;;3.28;;
23280;SDS011;11809;56.390;-3.266;2023-06-19T05:47:15;13.05;;;3.20;;
23280;SDS011;11809;56.390;-3.266;2023-06-19T05:49:43;12.45;;;3.33;;
23280;SDS011;11809;56.390;-3.266;2023-06-19T05:52:10;11.32;;;3.00;;
23280;SDS011;11809;56.390;-3.266;2023-06-19T05:54:37;21.30;;;3.60;;
23280;SDS011;11809;56.390;-3.266;2023-06-19T05:57:05;32.47;;;4.57;;
23280;SDS011;11809;56.390;-3.266;2023-06-19T05:59:32;20.92;;;4.35;;
23280;SDS011;11809;56.390;-3.266;2023-06-19T06:01:59;16.75;;;4.13;;
23280;SDS011;11809;56.390;-3.266;2023-06-19T06:04:27;14.02;;;3.80;;
23280;SDS011;11809;56.390;-3.266;2023-06-19T06:06:54;11.35;;;3.47;;
23280;SDS011;11809;56.390;-3.266;2023-06-19T06:09:21;10.15;;;3.75;;
23280;SDS011;11809;56.390;-3.266;2023-06-19T06:11:48;9.57;;;3.67;;
23280;SDS011;11809;56.390;-3.266;2023-06-19T06:14:15;8.82;;;3.45;;
23280;SDS011;11809;56.390;-3.266;2023-06-19T06:16:42;8.55;;;3.78;;
23280;SDS011;11809;56.390;-3.266;2023-06-19T06:19:10;22.35;;;4.28;;
23280;SDS011;11809;56.390;-3.266;2023-06-19T06:21:37;22.70;;;4.55;;
23280;SDS011;11809;56.390;-3.266;2023-06-19T06:24:04;11.73;;;3.85;;
23280;SDS011;11809;56.390;-3.266;2023-06-19T06:26:31;10.30;;;4.03;;
23280;SDS011;11809;56.390;-3.266;2023-06-19T06:28:59;12.27;;;4.18;;
23280;SDS011;11809;56.390;-3.266;2023-06-19T06:31:27;14.70;;;3.92;;
23280;SDS011;11809;56.390;-3.266;2023-06-19T06:33:54;19.08;;;4.05;;
23280;SDS011;11809;56.390;-3.266;2023-06-19T06:36:21;13.60;;;3.60;;
23280;SDS011;11809;56.390;-3.266;2023-06-19T06:39:02;7.68;;;3.45;;
23280;SDS011;11809;56.390;-3.266;2023-06-19T06:41:29;6.28;;;3.08;;
23280;SDS011;11809;56.390;-3.266;2023-06-19T06:43:56;4.60;;;3.05;;
23280;SDS011;11809;56.390;-3.266;2023-06-19T06:46:24;5.95;;;3.13;;
23280;SDS011;11809;56.390;-3.266;2023-06-19T06:48:51;3.60;;;2.72;;
23280;SDS011;11809;56.390;-3.266;2023-06-19T06:51:18;4.47;;;2.60;;
23280;SDS011;11809;56.390;-3.266;2023-06-19T06:53:45;2.95;;;2.30;;
23280;SDS011;11809;56.390;-3.266;2023-06-19T06:56:13;2.90;;;2.08;;
23280;SDS011;11809;56.390;-3.266;2023-06-19T06:58:40;3.97;;;2.20;;
23280;SDS011;11809;56.390;-3.266;2023-06-19T07:01:07;2.47;;;2.28;;
23280;SDS011;11809;56.390;-3.266;2023-06-19T07:03:34;2.58;;;2.22;;
23280;SDS011;11809;56.390;-3.266;2023-06-19T07:06:02;5.00;;;2.10;;
23280;SDS011;11809;56.390;-3.266;2023-06-19T07:08:29;2.78;;;1.98;;
23280;SDS011;11809;56.390;-3.266;2023-06-19T07:10:56;1.67;;;1.58;;
23280;SDS011;11809;56.390;-3.266;2023-06-19T07:13:24;5.80;;;1.83;;
23280;SDS011;11809;56.390;-3.266;2023-06-19T07:15:51;1.65;;;1.55;;
23280;SDS011;11809;56.390;-3.266;2023-06-19T07:18:19;1.90;;;1.65;;
23280;SDS011;11809;56.390;-3.266;2023-06-19T07:20:46;1.55;;;1.45;;
23280;SDS011;11809;56.390;-3.266;2023-06-19T07:23:13;2.00;;;1.90;;
23280;SDS011;11809;56.390;-3.266;2023-06-19T07:25:41;1.85;;;1.52;;
23280;SDS011;11809;56.390;-3.266;2023-06-19T07:28:08;3.45;;;1.40;;
23280;SDS011;11809;56.390;-3.266;2023-06-19T07:30:35;3.60;;;1.70;;
23280;SDS011;11809;56.390;-3.266;2023-06-19T07:33:03;1.58;;;1.38;;
23280;SDS011;11809;56.390;-3.266;2023-06-19T07:35:30;1.60;;;1.50;;
23280;SDS011;11809;56.390;-3.266;2023-06-19T07:37:57;1.52;;;1.42;;
23280;SDS011;11809;56.390;-3.266;2023-06-19T07:40:24;1.63;;;1.52;;
23280;SDS011;11809;56.390;-3.266;2023-06-19T07:42:52;1.60;;;1.50;;
23280;SDS011;11809;56.390;-3.266;2023-06-19T07:45:19;1.45;;;1.35;;
23280;SDS011;11809;56.390;-3.266;2023-06-19T07:47:55;1.45;;;1.35;;
23280;SDS011;11809;56.390;-3.266;2023-06-19T07:50:23;1.70;;;1.60;;
23280;SDS011;11809;56.390;-3.266;2023-06-19T07:52:53;2.55;;;1.55;;
23280;SDS011;11809;56.390;-3.266;2023-06-19T07:55:20;1.50;;;1.40;;
23280;SDS011;11809;56.390;-3.266;2023-06-19T07:57:47;1.40;;;1.30;;
23280;SDS011;11809;56.390;-3.266;2023-06-19T08:00:15;3.92;;;1.63;;
23280;SDS011;11809;56.390;-3.266;2023-06-19T08:02:42;2.95;;;1.50;;
23280;SDS011;11809;56.390;-3.266;2023-06-19T08:05:10;5.90;;;1.73;;
23280;SDS011;11809;56.390;-3.266;2023-06-19T08:07:38;1.75;;;1.65;;
23280;SDS011;11809;56.390;-3.266;2023-06-19T08:10:06;2.47;;;1.58;;
23280;SDS011;11809;56.390;-3.266;2023-06-19T08:12:43;1.60;;;1.50;;
23280;SDS011;11809;56.390;-3.266;2023-06-19T08:15:11;1.42;;;1.33;;
23280;SDS011;11809;56.390;-3.266;2023-06-19T08:17:40;2.17;;;1.50;;
23280;SDS011;11809;56.390;-3.266;2023-06-19T08:20:09;2.15;;;1.65;;
23280;SDS011;11809;56.390;-3.266;2023-06-19T08:22:36;3.35;;;1.30;;
23280;SDS011;11809;56.390;-3.266;2023-06-19T08:25:04;1.42;;;1.33;;
23280;SDS011;11809;56.390;-3.266;2023-06-19T08:27:32;1.77;;;1.30;;
23280;SDS011;11809;56.390;-3.266;2023-06-19T08:29:59;2.47;;;1.50;;
23280;SDS011;11809;56.390;-3.266;2023-06-19T08:32:27;1.70;;;1.40;;
23280;SDS011;11809;56.390;-3.266;2023-06-19T08:34:54;1.60;;;1.50;;
23280;SDS011;11809;56.390;-3.266;2023-06-19T08:37:23;1.70;;;1.60;;
23280;SDS011;11809;56.390;-3.266;2023-06-19T08:39:50;1.70;;;1.60;;
23280;SDS011;11809;56.390;-3.266;2023-06-19T08:42:17;1.63;;;1.52;;
23280;SDS011;11809;56.390;-3.266;2023-06-19T08:44:45;2.20;;;1.38;;
23280;SDS011;11809;56.390;-3.266;2023-06-19T08:47:12;2.28;;;1.15;;
23280;SDS011;11809;56.390;-3.266;2023-06-19T08:49:39;3.70;;;1.60;;
23280;SDS011;11809;56.390;-3.266;2023-06-19T08:52:07;2.05;;;1.50;;
23280;SDS011;11809;56.390;-3.266;2023-06-19T08:54:35;1.75;;;1.65;;
23280;SDS011;11809;56.390;-3.266;2023-06-19T08:57:11;69.30;;;4.07;;
23280;SDS011;11809;56.390;-3.266;2023-06-19T08:59:50;1.98;;;1.77;;
23280;SDS011;11809;56.390;-3.266;2023-06-19T09:02:18;6.45;;;2.08;;
23280;SDS011;11809;56.390;-3.266;2023-06-19T09:04:45;12.23;;;2.65;;
23280;SDS011;11809;56.390;-3.266;2023-06-19T09:07:12;6.80;;;2.70;;
23280;SDS011;11809;56.390;-3.266;2023-06-19T09:09:45;5.18;;;2.95;;
23280;SDS011;11809;56.390;-3.266;2023-06-19T09:12:15;4.57;;;2.45;;
23280;SDS011;11809;56.390;-3.266;2023-06-19T09:14:45;5.38;;;2.75;;
23280;SDS011;11809;56.390;-3.266;2023-06-19T09:17:16;3.95;;;3.08;;
23280;SDS011;11809;56.390;-3.266;2023-06-19T09:19:49;3.17;;;2.88;;
23280;SDS011;11809;56.390;-3.266;2023-06-19T09:22:20;6.75;;;2.92;;
23280;SDS011;11809;56.390;-3.266;2023-06-19T09:24:48;6.40;;;3.20;;
23280;SDS011;11809;56.390;-3.266;2023-06-19T09:27:17;4.68;;;3.20;;
23280;SDS011;11809;56.390;-3.266;2023-06-19T09:29:47;3.20;;;3.00;;
23280;SDS011;11809;56.390;-3.266;2023-06-19T09:34:49;3.72;;;3.42;;
23280;SDS011;11809;56.390;-3.266;2023-06-19T09:37:21;3.80;;;3.50;;
23280;SDS011;11809;56.390;-3.266;2023-06-19T09:42:33;3.88;;;3.17;;
23280;SDS011;11809;56.390;-3.266;2023-06-19T09:45:03;3.55;;;3.25;;
23280;SDS011;11809;56.390;-3.266;2023-06-19T09:47:35;4.23;;;3.17;;
23280;SDS011;11809;56.390;-3.266;2023-06-19T09:50:05;3.97;;;3.58;;
23280;SDS011;11809;56.390;-3.266;2023-06-19T09:52:33;3.75;;;3.45;;
23280;SDS011;11809;56.390;-3.266;2023-06-19T09:55:04;4.07;;;3.42;;
23280;SDS011;11809;56.390;-3.266;2023-06-19T10:00:00;3.65;;;3.08;;
23280;SDS011;11809;56.390;-3.266;2023-06-19T10:02:42;3.72;;;3.40;;
23280;SDS011;11809;56.390;-3.266;2023-06-19T10:05:11;3.53;;;3.22;;
23280;SDS011;11809;56.390;-3.266;2023-06-19T10:07:41;4.78;;;3.50;;
23280;SDS011;11809;56.390;-3.266;2023-06-19T10:10:10;3.70;;;3.40;;
23280;SDS011;11809;56.390;-3.266;2023-06-19T10:12:49;3.42;;;3.13;;
23280;SDS011;11809;56.390;-3.266;2023-06-19T10:15:23;4.18;;;3.28;;
23280;SDS011;11809;56.390;-3.266;2023-06-19T10:18:04;4.10;;;3.53;;
23280;SDS011;11809;56.390;-3.266;2023-06-19T10:20:33;3.65;;;3.35;;
23280;SDS011;11809;56.390;-3.266;2023-06-19T10:23:16;4.00;;;3.47;;
23280;SDS011;11809;56.390;-3.266;2023-06-19T10:25:47;5.75;;;4.00;;
23280;SDS011;11809;56.390;-3.266;2023-06-19T10:28:22;4.63;;;3.45;;
23280;SDS011;11809;56.390;-3.266;2023-06-19T10:31:01;4.03;;;3.50;;
23280;SDS011;11809;56.390;-3.266;2023-06-19T10:33:31;4.20;;;3.75;;
23280;SDS011;11809;56.390;-3.266;2023-06-19T10:36:00;3.90;;;3.22;;
23280;SDS011;11809;56.390;-3.266;2023-06-19T10:38:30;4.82;;;3.38;;
23280;SDS011;11809;56.390;-3.266;2023-06-19T10:40:57;4.47;;;3.38;;
23280;SDS011;11809;56.390;-3.266;2023-06-19T10:43:25;4.15;;;3.78;;
23280;SDS011;11809;56.390;-3.266;2023-06-19T10:45:57;5.65;;;3.55;;
23280;SDS011;11809;56.390;-3.266;2023-06-19T10:48:25;4.55;;;3.22;;
23280;SDS011;11809;56.390;-3.266;2023-06-19T10:50:55;4.00;;;3.53;;
23280;SDS011;11809;56.390;-3.266;2023-06-19T10:53:23;5.07;;;3.33;;
23280;SDS011;11809;56.390;-3.266;2023-06-19T10:55:55;3.75;;;3.42;;
23280;SDS011;11809;56.390;-3.266;2023-06-19T10:58:26;3.50;;;3.20;;
23280;SDS011;11809;56.390;-3.266;2023-06-19T11:00:55;3.30;;;3.00;;
23280;SDS011;11809;56.390;-3.266;2023-06-19T11:03:23;4.45;;;3.50;;
23280;SDS011;11809;56.390;-3.266;2023-06-19T11:05:51;4.28;;;3.58;;
23280;SDS011;11809;56.390;-3.266;2023-06-19T11:08:19;3.55;;;3.25;;
23280;SDS011;11809;56.390;-3.266;2023-06-19T11:10:48;4.22;;;3.83;;
23280;SDS011;11809;56.390;-3.266;2023-06-19T11:13:18;3.70;;;3.40;;
23280;SDS011;11809;56.390;-3.266;2023-06-19T11:15:49;3.67;;;3.20;;
23280;SDS011;11809;56.390;-3.266;2023-06-19T11:18:18;4.05;;;3.60;;
23280;SDS011;11809;56.390;-3.266;2023-06-19T11:20:46;4.07;;;3.10;;
23280;SDS011;11809;56.390;-3.266;2023-06-19T11:23:24;5.43;;;3.53;;
23280;SDS011;11809;56.390;-3.266;2023-06-19T11:25:53;3.90;;;3.47;;
23280;SDS011;11809;56.390;-3.266;2023-06-19T11:28:20;4.85;;;3.30;;
23280;SDS011;11809;56.390;-3.266;2023-06-19T11:30:57;4.13;;;3.65;;
23280;SDS011;11809;56.390;-3.266;2023-06-19T11:33:30;4.57;;;3.42;;
23280;SDS011;11809;56.390;-3.266;2023-06-19T11:36:00;4.93;;;3.45;;
23280;SDS011;11809;56.390;-3.266;2023-06-19T11:38:28;5.63;;;3.40;;
23280;SDS011;11809;56.390;-3.266;2023-06-19T11:40:55;4.47;;;3.53;;
23280;SDS011;11809;56.390;-3.266;2023-06-19T11:43:34;4.38;;;3.35;;
23280;SDS011;11809;56.390;-3.266;2023-06-19T11:46:08;3.70;;;3.40;;
23280;SDS011;11809;56.390;-3.266;2023-06-19T11:48:36;6.15;;;3.88;;
23280;SDS011;11809;56.390;-3.266;2023-06-19T11:51:04;4.22;;;3.47;;
23280;SDS011;11809;56.390;-3.266;2023-06-19T11:53:31;5.60;;;3.90;;
23280;SDS011;11809;56.390;-3.266;2023-06-19T11:55:59;4.28;;;3.63;;
23280;SDS011;11809;56.390;-3.266;2023-06-19T11:58:27;8.32;;;3.55;;
23280;SDS011;11809;56.390;-3.266;2023-06-19T12:00:54;6.80;;;3.60;;
23280;SDS011;11809;56.390;-3.266;2023-06-19T12:03:23;5.43;;;3.47;;
23280;SDS011;11809;56.390;-3.266;2023-06-19T12:05:50;4.57;;;3.50;;
23280;SDS011;11809;56.390;-3.266;2023-06-19T12:08:18;4.00;;;3.60;;
23280;SDS011;11809;56.390;-3.266;2023-06-19T12:10:45;3.70;;;3.35;;
23280;SDS011;11809;56.390;-3.266;2023-06-19T12:13:12;3.58;;;3.00;;
23280;SDS011;11809;56.390;-3.266;2023-06-19T12:15:40;3.95;;;3.60;;
23280;SDS011;11809;56.390;-3.266;2023-06-19T12:18:07;3.97;;;3.08;;
23280;SDS011;11809;56.390;-3.266;2023-06-19T12:20:34;3.75;;;3.42;;
23280;SDS011;11809;56.390;-3.266;2023-06-19T12:23:02;3.85;;;3.05;;
23280;SDS011;11809;56.390;-3.266;2023-06-19T12:25:29;5.57;;;3.20;;
23280;SDS011;11809;56.390;-3.266;2023-06-19T12:27:57;4.13;;;3.03;;
23280;SDS011;11809;56.390;-3.266;2023-06-19T12:30:25;3.40;;;3.10;;
23280;SDS011;11809;56.390;-3.266;2023-06-19T12:32:52;5.35;;;3.00;;
23280;SDS011;11809;56.390;-3.266;2023-06-19T12:35:19;3.65;;;3.10;;
23280;SDS011;11809;56.390;-3.266;2023-06-19T12:37:47;3.53;;;3.20;;
23280;SDS011;11809;56.390;-3.266;2023-06-19T12:40:14;3.60;;;3.10;;
23280;SDS011;11809;56.390;-3.266;2023-06-19T12:42:43;3.65;;;2.97;;
23280;SDS011;11809;56.390;-3.266;2023-06-19T12:45:11;4.07;;;2.80;;
23280;SDS011;11809;56.390;-3.266;2023-06-19T12:47:38;4.60;;;2.95;;
23280;SDS011;11809;56.390;-3.266;2023-06-19T12:50:06;4.05;;;2.97;;
23280;SDS011;11809;56.390;-3.266;2023-06-19T12:52:34;5.47;;;2.80;;
23280;SDS011;11809;56.390;-3.266;2023-06-19T12:55:01;3.88;;;2.72;;
23280;SDS011;11809;56.390;-3.266;2023-06-19T12:57:28;4.57;;;2.60;;
23280;SDS011;11809;56.390;-3.266;2023-06-19T12:59:56;3.22;;;2.88;;
23280;SDS011;11809;56.390;-3.266;2023-06-19T13:02:23;4.20;;;2.80;;
23280;SDS011;11809;56.390;-3.266;2023-06-19T13:04:51;3.28;;;2.97;;
23280;SDS011;11809;56.390;-3.266;2023-06-19T13:07:19;3.13;;;2.75;;
23280;SDS011;11809;56.390;-3.266;2023-06-19T13:09:46;7.63;;;2.90;;
23280;SDS011;11809;56.390;-3.266;2023-06-19T13:12:13;3.30;;;2.88;;
23280;SDS011;11809;56.390;-3.266;2023-06-19T13:14:40;4.10;;;2.70;;
23280;SDS011;11809;56.390;-3.266;2023-06-19T13:17:08;5.22;;;2.53;;
23280;SDS011;11809;56.390;-3.266;2023-06-19T13:19:36;5.88;;;2.55;;
23280;SDS011;11809;56.390;-3.266;2023-06-19T13:22:03;5.13;;;2.58;;
23280;SDS011;11809;56.390;-3.266;2023-06-19T13:24:31;2.85;;;2.58;;
23280;SDS011;11809;56.390;-3.266;2023-06-19T13:26:59;3.40;;;2.47;;
23280;SDS011;11809;56.390;-3.266;2023-06-19T13:29:27;5.05;;;2.78;;
23280;SDS011;11809;56.390;-3.266;2023-06-19T13:31:55;4.40;;;2.40;;
23280;SDS011;11809;56.390;-3.266;2023-06-19T13:34:22;2.70;;;2.47;;
23280;SDS011;11809;56.390;-3.266;2023-06-19T13:36:49;3.45;;;2.50;;
23280;SDS011;11809;56.390;-3.266;2023-06-19T13:39:17;3.63;;;2.33;;
23280;SDS011;11809;56.390;-3.266;2023-06-19T13:41:47;3.60;;;2.83;;
23280;SDS011;11809;56.390;-3.266;2023-06-19T13:44:14;4.30;;;2.40;;
23280;SDS011;11809;56.390;-3.266;2023-06-19T13:46:42;2.30;;;2.10;;
23280;SDS011;11809;56.390;-3.266;2023-06-19T13:49:09;22.50;;;3.40;;
23280;SDS011;11809;56.390;-3.266;2023-06-19T13:51:37;4.25;;;2.50;;
23280;SDS011;11809;56.390;-3.266;2023-06-19T13:54:05;3.45;;;2.55;;
23280;SDS011;11809;56.390;-3.266;2023-06-19T13:56:33;3.88;;;2.28;;
23280;SDS011;11809;56.390;-3.266;2023-06-19T13:59:00;5.70;;;2.60;;
23280;SDS011;11809;56.390;-3.266;2023-06-19T14:01:28;3.10;;;2.78;;
23280;SDS011;11809;56.390;-3.266;2023-06-19T14:03:55;3.60;;;2.28;;
23280;SDS011;11809;56.390;-3.266;2023-06-19T14:06:24;8.18;;;2.47;;
23280;SDS011;11809;56.390;-3.266;2023-06-19T14:08:52;3.15;;;2.33;;
23280;SDS011;11809;56.390;-3.266;2023-06-19T14:11:19;3.33;;;2.13;;
23280;SDS011;11809;56.390;-3.266;2023-06-19T14:13:47;4.18;;;2.33;;
23280;SDS011;11809;56.390;-3.266;2023-06-19T14:16:15;3.92;;;2.53;;
23280;SDS011;11809;56.390;-3.266;2023-06-19T14:18:44;3.78;;;2.35;;
23280;SDS011;11809;56.390;-3.266;2023-06-19T14:21:14;2.30;;;2.10;;
23280;SDS011;11809;56.390;-3.266;2023-06-19T14:23:45;2.40;;;1.90;;
23280;SDS011;11809;56.390;-3.266;2023-06-19T14:26:12;19.55;;;2.90;;
23280;SDS011;11809;56.390;-3.266;2023-06-19T14:28:39;2.45;;;2.25;;
23280;SDS011;11809;56.390;-3.266;2023-06-19T14:31:07;2.58;;;2.10;;
23280;SDS011;11809;56.390;-3.266;2023-06-19T14:33:34;7.22;;;2.35;;
23280;SDS011;11809;56.390;-3.266;2023-06-19T14:36:03;3.90;;;2.00;;
23280;SDS011;11809;56.390;-3.266;2023-06-19T14:38:31;2.50;;;2.10;;
23280;SDS011;11809;56.390;-3.266;2023-06-19T14:41:00;6.07;;;2.10;;
23280;SDS011;11809;56.390;-3.266;2023-06-19T14:43:28;4.13;;;2.13;;
23280;SDS011;11809;56.390;-3.266;2023-06-19T14:45:59;2.40;;;2.13;;
23280;SDS011;11809;56.390;-3.266;2023-06-19T14:48:26;3.20;;;1.77;;